createdAt,value
2022-07-28T00:00:34.794Z,1.20
2022-07-28T00:03:05.354Z,1.37
2022-07-28T00:05:34.502Z,1.30
2022-07-28T00:08:02.972Z,1.60
2022-07-28T00:10:32.397Z,1.10
2022-07-28T00:13:00.859Z,1.20
2022-07-28T00:15:29.851Z,1.70
2022-07-28T00:17:58.350Z,1.20
2022-07-28T00:20:30.543Z,1.50
2022-07-28T00:22:58.957Z,1.60
2022-07-28T00:25:27.574Z,1.70
2022-07-28T00:27:56.010Z,1.37
2022-07-28T00:30:24.694Z,1.80
2022-07-28T00:32:53.057Z,1.90
2022-07-28T00:35:29.061Z,1.40
2022-07-28T00:38:01.308Z,1.23
2022-07-28T00:40:43.768Z,1.60
2022-07-28T00:43:12.156Z,1.53
2022-07-28T00:45:40.710Z,1.20
2022-07-28T00:48:09.329Z,1.80
2022-07-28T00:50:40.924Z,1.60
2022-07-28T00:53:10.932Z,1.40
2022-07-28T00:56:05.215Z,1.57
2022-07-28T00:58:30.152Z,1.40
2022-07-28T01:00:58.848Z,1.07
2022-07-28T01:03:27.728Z,1.60
2022-07-28T01:06:01.830Z,1.43
2022-07-28T01:08:38.833Z,1.40
2022-07-28T01:11:13.549Z,1.40
2022-07-28T01:13:47.086Z,1.30
2022-07-28T01:16:15.577Z,1.50
2022-07-28T01:18:58.324Z,1.73
2022-07-28T01:21:30.867Z,1.70
2022-07-28T01:24:21.498Z,1.50
2022-07-28T01:26:56.862Z,1.70
2022-07-28T01:29:51.509Z,1.07
2022-07-28T01:32:25.682Z,2.03
2022-07-28T01:34:58.669Z,1.27
2022-07-28T01:37:29.028Z,1.80
2022-07-28T01:39:59.983Z,1.70
2022-07-28T01:42:32.159Z,1.87
2022-07-28T01:45:01.251Z,1.93
2022-07-28T01:47:32.879Z,1.67
2022-07-28T01:50:03.428Z,1.67
2022-07-28T01:52:32.287Z,1.80
2022-07-28T01:55:02.806Z,1.83
2022-07-28T01:57:32.198Z,1.93
2022-07-28T02:00:01.462Z,1.30
2022-07-28T02:02:32.960Z,1.93
2022-07-28T02:05:01.595Z,2.00
2022-07-28T02:07:30.690Z,1.83
2022-07-28T02:10:00.602Z,1.80
2022-07-28T02:12:29.649Z,1.40
2022-07-28T02:14:58.646Z,1.83
2022-07-28T02:17:30.618Z,1.63
2022-07-28T02:19:59.454Z,1.60
2022-07-28T02:22:28.855Z,1.57
2022-07-28T02:24:57.788Z,2.10
2022-07-28T02:27:35.195Z,1.33
2022-07-28T02:30:07.207Z,1.17
2022-07-28T02:32:41.578Z,1.40
2022-07-28T02:35:16.643Z,1.50
2022-07-28T02:37:49.370Z,1.33
2022-07-28T02:40:18.389Z,1.40
2022-07-28T02:42:48.841Z,1.20
2022-07-28T02:45:19.731Z,1.50
2022-07-28T02:47:53.132Z,1.40
2022-07-28T02:50:24.644Z,1.50
2022-07-28T02:52:55.313Z,1.20
2022-07-28T02:55:23.967Z,1.10
2022-07-28T02:57:56.664Z,1.47
2022-07-28T03:00:26.709Z,1.20
2022-07-28T03:02:57.185Z,1.10
2022-07-28T03:05:25.943Z,1.57
2022-07-28T03:07:54.636Z,0.97
2022-07-28T03:10:33.503Z,1.13
2022-07-28T03:13:03.447Z,1.33
2022-07-28T03:15:31.922Z,1.37
2022-07-28T03:18:01.690Z,1.50
2022-07-28T03:20:30.332Z,1.50
2022-07-28T03:22:59.288Z,1.70
2022-07-28T03:25:31.450Z,1.10
2022-07-28T03:28:01.163Z,1.37
2022-07-28T03:30:33.104Z,1.20
2022-07-28T03:33:03.429Z,1.40
2022-07-28T03:35:33.539Z,1.90
2022-07-28T03:38:06.632Z,1.57
2022-07-28T03:40:36.762Z,1.40
2022-07-28T03:43:08.048Z,1.40
2022-07-28T03:45:36.830Z,1.77
2022-07-28T03:48:11.077Z,1.43
2022-07-28T03:50:39.455Z,1.73
2022-07-28T03:53:12.243Z,1.57
2022-07-28T03:55:40.638Z,1.60
2022-07-28T03:58:09.018Z,1.50
2022-07-28T04:00:37.606Z,1.43
2022-07-28T04:03:06.106Z,1.47
2022-07-28T04:05:58.186Z,1.10
2022-07-28T04:08:26.739Z,1.30
2022-07-28T04:10:55.138Z,1.00
2022-07-28T04:13:23.563Z,1.37
2022-07-28T04:15:51.932Z,1.20
2022-07-28T04:18:20.625Z,1.47
2022-07-28T04:20:49.028Z,1.30
2022-07-28T04:23:19.630Z,1.30
2022-07-28T04:25:47.995Z,1.53
2022-07-28T04:28:16.468Z,1.30
2022-07-28T04:30:45.004Z,1.30
2022-07-28T04:33:14.500Z,1.30
2022-07-28T04:35:43.041Z,1.20
2022-07-28T04:38:13.939Z,1.20
2022-07-28T04:40:43.794Z,1.43
2022-07-28T04:43:12.164Z,1.27
2022-07-28T04:45:46.014Z,1.30
2022-07-28T04:48:23.526Z,1.20
2022-07-28T04:50:52.746Z,1.80
2022-07-28T04:53:22.262Z,1.20
2022-07-28T04:55:53.467Z,1.43
2022-07-28T04:58:23.547Z,1.33
2022-07-28T05:00:52.788Z,1.40
2022-07-28T05:03:21.755Z,1.30
2022-07-28T05:05:54.036Z,1.67
2022-07-28T05:08:26.094Z,1.37
2022-07-28T05:10:56.529Z,1.30
2022-07-28T05:13:28.981Z,1.40
2022-07-28T05:16:01.871Z,1.53
2022-07-28T05:18:30.503Z,1.20
2022-07-28T05:20:58.945Z,1.40
2022-07-28T05:23:27.461Z,1.27
2022-07-28T05:25:57.563Z,1.50
2022-07-28T05:28:26.098Z,1.20
2022-07-28T05:30:55.183Z,0.90
2022-07-28T05:33:24.810Z,1.40
2022-07-28T05:36:00.409Z,0.80
2022-07-28T05:38:30.285Z,1.00
2022-07-28T05:41:00.580Z,1.13
2022-07-28T05:43:29.004Z,1.40
2022-07-28T05:45:57.524Z,1.02
2022-07-28T05:48:26.181Z,1.00
2022-07-28T05:50:55.010Z,1.02
2022-07-28T05:53:23.632Z,0.80
2022-07-28T05:55:59.534Z,0.95
2022-07-28T05:58:31.540Z,1.00
2022-07-28T06:01:01.123Z,1.02
2022-07-28T06:03:30.495Z,0.90
2022-07-28T06:06:14.292Z,1.00
2022-07-28T06:08:45.626Z,0.80
2022-07-28T06:11:22.197Z,0.52
2022-07-28T06:13:53.131Z,0.70
2022-07-28T06:16:22.959Z,0.65
2022-07-28T06:18:52.224Z,0.85
2022-07-28T06:21:20.958Z,0.68
2022-07-28T06:23:49.377Z,1.00
2022-07-28T06:26:17.865Z,0.98
2022-07-28T06:28:46.299Z,0.68
2022-07-28T06:31:16.277Z,0.68
2022-07-28T06:33:44.657Z,0.80
2022-07-28T06:36:13.010Z,0.70
2022-07-28T06:38:41.451Z,0.57
2022-07-28T06:41:09.857Z,0.65
2022-07-28T06:43:39.251Z,1.77
2022-07-28T06:46:08.156Z,0.52
2022-07-28T06:48:39.333Z,0.73
2022-07-28T06:51:07.919Z,0.55
2022-07-28T06:53:36.502Z,0.77
2022-07-28T06:56:06.204Z,0.52
2022-07-28T06:58:34.557Z,0.82
2022-07-28T07:01:07.462Z,0.70
2022-07-28T07:03:37.640Z,0.40
2022-07-28T07:06:06.070Z,0.50
2022-07-28T07:08:34.718Z,0.43
2022-07-28T07:11:03.102Z,0.45
2022-07-28T07:13:32.871Z,0.55
2022-07-28T07:16:01.428Z,0.40
2022-07-28T07:18:30.017Z,0.45
2022-07-28T07:20:59.956Z,0.47
2022-07-28T07:23:28.383Z,0.55
2022-07-28T07:25:57.028Z,0.60
2022-07-28T07:28:25.626Z,0.50
2022-07-28T07:30:54.074Z,0.60
2022-07-28T07:33:22.391Z,0.43
2022-07-28T07:35:50.845Z,0.60
2022-07-28T07:38:20.603Z,0.52
2022-07-28T07:40:51.058Z,0.45
2022-07-28T07:43:19.564Z,0.50
2022-07-28T07:45:47.917Z,0.68
2022-07-28T07:48:16.415Z,0.70
2022-07-28T07:50:49.344Z,0.40
2022-07-28T07:53:22.813Z,0.50
2022-07-28T07:55:51.267Z,0.43
2022-07-28T07:58:20.083Z,1.00
2022-07-28T08:00:48.610Z,0.60
2022-07-28T08:03:17.509Z,0.60
2022-07-28T08:05:54.736Z,0.75
2022-07-28T08:08:25.230Z,0.57
2022-07-28T08:10:54.414Z,0.50
2022-07-28T08:13:23.129Z,0.52
2022-07-28T08:15:52.107Z,0.50
2022-07-28T08:18:21.266Z,0.75
2022-07-28T08:20:49.697Z,0.52
2022-07-28T08:23:21.549Z,0.90
2022-07-28T08:25:54.684Z,0.47
2022-07-28T08:28:23.129Z,0.70
2022-07-28T08:30:52.590Z,0.77
2022-07-28T08:33:22.063Z,0.80
2022-07-28T08:35:50.668Z,0.60
2022-07-28T08:38:19.950Z,0.80
2022-07-28T08:40:50.968Z,0.57
2022-07-28T08:43:33.459Z,0.60
2022-07-28T08:46:04.171Z,0.50
2022-07-28T08:48:34.644Z,0.50
2022-07-28T08:51:05.271Z,0.50
2022-07-28T08:53:34.285Z,0.50
2022-07-28T08:56:06.018Z,0.70
2022-07-28T08:58:37.275Z,0.50
2022-07-28T09:01:08.354Z,0.57
2022-07-28T09:03:38.304Z,0.68
2022-07-28T09:06:07.165Z,0.40
2022-07-28T09:08:36.022Z,0.38
2022-07-28T09:11:06.202Z,0.50
2022-07-28T09:13:36.281Z,0.50
2022-07-28T09:16:07.250Z,0.60
2022-07-28T09:18:36.350Z,0.50
2022-07-28T09:21:04.814Z,0.50
2022-07-28T09:23:44.870Z,0.75
2022-07-28T09:26:14.116Z,0.68
2022-07-28T09:28:51.514Z,0.80
2022-07-28T09:31:20.930Z,0.50
2022-07-28T09:33:57.503Z,0.50
2022-07-28T09:36:26.198Z,0.30
2022-07-28T09:38:54.572Z,0.40
2022-07-28T09:41:23.073Z,0.50
2022-07-28T09:43:55.855Z,0.43
2022-07-28T09:46:29.463Z,0.60
2022-07-28T09:48:59.923Z,0.50
2022-07-28T09:51:30.127Z,0.70
2022-07-28T09:54:10.130Z,0.68
2022-07-28T09:56:38.875Z,0.55
2022-07-28T09:59:09.227Z,0.43
2022-07-28T10:01:53.944Z,0.68
2022-07-28T10:04:33.524Z,0.57
2022-07-28T10:07:11.163Z,0.40
2022-07-28T10:09:40.226Z,0.80
2022-07-28T10:12:20.594Z,0.40
2022-07-28T10:14:51.764Z,0.50
2022-07-28T10:17:25.243Z,0.40
2022-07-28T10:19:55.005Z,0.38
2022-07-28T10:22:26.394Z,0.70
2022-07-28T10:24:56.600Z,0.30
2022-07-28T10:27:26.022Z,0.50
2022-07-28T10:29:59.373Z,0.43
2022-07-28T10:32:29.526Z,0.65
2022-07-28T10:35:02.710Z,0.40
2022-07-28T10:37:32.830Z,0.40
2022-07-28T10:40:09.810Z,0.47
2022-07-28T10:42:40.093Z,0.68
2022-07-28T10:45:11.487Z,0.50
2022-07-28T10:47:39.966Z,0.40
2022-07-28T10:50:09.536Z,0.75
2022-07-28T10:52:48.526Z,0.40
2022-07-28T10:55:21.793Z,0.30
2022-07-28T10:58:01.707Z,0.40
2022-07-28T11:00:53.017Z,0.32
2022-07-28T11:03:39.978Z,0.70
2022-07-28T11:06:29.030Z,0.30
2022-07-28T11:08:58.508Z,0.35
2022-07-28T11:11:46.654Z,0.52
2022-07-28T11:14:33.653Z,0.47
2022-07-28T11:17:19.853Z,0.50
2022-07-28T11:22:46.059Z,0.50
2022-07-28T11:25:18.646Z,0.43
2022-07-28T11:28:01.715Z,0.40
2022-07-28T11:30:53.234Z,0.50
2022-07-28T11:33:25.114Z,0.68
2022-07-28T11:36:00.697Z,0.50
2022-07-28T11:38:30.799Z,0.73
2022-07-28T11:40:59.211Z,0.40
2022-07-28T11:43:36.662Z,0.60
2022-07-28T11:46:43.061Z,0.50
2022-07-28T11:49:24.789Z,0.40
2022-07-28T11:52:12.970Z,0.65
2022-07-28T11:54:44.326Z,0.40
2022-07-28T11:57:13.766Z,0.40
2022-07-28T11:59:47.447Z,0.40
2022-07-28T12:02:23.157Z,0.75
2022-07-28T12:05:05.634Z,0.50
2022-07-28T12:07:40.039Z,0.60
2022-07-28T12:13:27.967Z,0.40
2022-07-28T12:15:56.492Z,0.50
2022-07-28T12:18:25.327Z,0.50
2022-07-28T12:20:55.879Z,0.70
2022-07-28T12:23:39.170Z,0.47
2022-07-28T12:26:31.303Z,0.40
2022-07-28T12:29:00.999Z,0.50
2022-07-28T12:31:33.286Z,0.70
2022-07-28T12:34:02.019Z,0.50
2022-07-28T12:36:31.945Z,0.43
2022-07-28T12:39:01.331Z,0.30
2022-07-28T12:41:33.673Z,0.68
2022-07-28T12:44:05.835Z,0.40
2022-07-28T12:46:34.960Z,0.52
2022-07-28T12:49:03.650Z,0.50
2022-07-28T12:51:35.217Z,0.47
2022-07-28T12:54:04.193Z,0.47
2022-07-28T12:56:32.991Z,0.40
2022-07-28T12:59:09.716Z,0.25
2022-07-28T13:01:51.939Z,0.50
2022-07-28T13:04:45.046Z,0.50
2022-07-28T13:07:16.890Z,0.60
2022-07-28T13:10:00.212Z,0.60
2022-07-28T13:12:32.133Z,0.68
2022-07-28T13:15:01.762Z,0.50
2022-07-28T13:17:48.937Z,0.47
2022-07-28T13:20:18.086Z,0.35
2022-07-28T13:22:48.118Z,0.63
2022-07-28T13:25:16.599Z,0.85
2022-07-28T13:27:48.495Z,0.60
2022-07-28T13:30:19.480Z,0.70
2022-07-28T13:32:47.984Z,1.00
2022-07-28T13:35:18.836Z,0.60
2022-07-28T13:37:49.057Z,0.63
2022-07-28T13:40:17.642Z,0.47
2022-07-28T13:42:52.951Z,0.60
2022-07-28T13:45:24.867Z,0.90
2022-07-28T13:47:58.342Z,0.63
2022-07-28T13:50:27.401Z,0.90
2022-07-28T13:52:57.247Z,0.82
2022-07-28T13:55:27.337Z,0.50
2022-07-28T13:57:56.526Z,0.60
2022-07-28T14:00:25.755Z,0.40
2022-07-28T14:02:54.329Z,0.52
2022-07-28T14:05:24.286Z,0.60
2022-07-28T14:08:01.632Z,0.75
2022-07-28T14:10:30.004Z,0.88
2022-07-28T14:12:58.310Z,0.93
2022-07-28T14:15:26.689Z,0.57
2022-07-28T14:17:55.180Z,0.55
2022-07-28T14:20:23.812Z,0.52
2022-07-28T14:22:52.266Z,0.60
2022-07-28T14:25:22.122Z,0.60
2022-07-28T14:27:51.599Z,0.70
2022-07-28T14:30:20.321Z,0.70
2022-07-28T14:32:48.895Z,0.40
2022-07-28T14:35:17.642Z,0.60
2022-07-28T14:38:35.178Z,0.60
2022-07-28T14:40:39.241Z,0.60
2022-07-28T14:43:08.373Z,0.80
2022-07-28T14:46:12.387Z,0.82
2022-07-28T14:48:25.588Z,0.90
2022-07-28T14:50:55.368Z,0.77
2022-07-28T14:53:24.165Z,0.57
2022-07-28T14:55:57.790Z,0.60
2022-07-28T14:58:26.189Z,0.50
2022-07-28T15:00:54.742Z,0.70
2022-07-28T15:03:23.257Z,0.57
2022-07-28T15:05:51.679Z,0.57
2022-07-28T15:08:20.036Z,0.60
2022-07-28T15:10:54.205Z,0.50
2022-07-28T15:13:24.295Z,0.35
2022-07-28T15:15:52.829Z,0.60
2022-07-28T15:18:21.219Z,0.70
2022-07-28T15:20:54.614Z,0.40
2022-07-28T15:23:22.989Z,0.50
2022-07-28T15:25:53.017Z,0.57
2022-07-28T15:28:22.717Z,0.55
2022-07-28T15:30:54.056Z,0.75
2022-07-28T15:33:24.139Z,0.50
2022-07-28T15:35:58.801Z,0.40
2022-07-28T15:38:29.118Z,0.50
2022-07-28T15:40:58.923Z,0.50
2022-07-28T15:43:28.682Z,0.50
2022-07-28T15:45:57.969Z,0.40
2022-07-28T15:48:26.720Z,0.50
2022-07-28T15:50:55.440Z,0.40
2022-07-28T15:53:23.873Z,0.60
2022-07-28T15:55:52.573Z,0.80
2022-07-28T15:58:21.658Z,0.55
2022-07-28T16:00:51.697Z,0.60
2022-07-28T16:03:20.364Z,0.70
2022-07-28T16:05:50.363Z,0.45
2022-07-28T16:08:22.482Z,0.50
2022-07-28T16:10:52.412Z,0.30
2022-07-28T16:13:37.165Z,0.43
2022-07-28T16:16:08.944Z,0.60
2022-07-28T16:18:37.824Z,0.50
2022-07-28T16:21:06.875Z,0.57
2022-07-28T16:23:35.472Z,0.25
2022-07-28T16:26:07.466Z,0.60
2022-07-28T16:28:35.954Z,0.55
2022-07-28T16:31:04.502Z,0.52
2022-07-28T16:33:34.350Z,0.68
2022-07-28T16:36:03.194Z,0.60
2022-07-28T16:38:31.640Z,0.60
2022-07-28T16:41:00.062Z,0.50
2022-07-28T16:43:30.264Z,0.52
2022-07-28T16:45:58.820Z,0.57
2022-07-28T16:48:27.229Z,0.50
2022-07-28T16:50:56.961Z,0.57
2022-07-28T16:53:25.458Z,0.40
2022-07-28T16:55:53.993Z,0.40
2022-07-28T16:58:22.692Z,0.63
2022-07-28T17:01:01.238Z,0.73
2022-07-28T17:03:30.936Z,0.60
2022-07-28T17:06:00.707Z,0.60
2022-07-28T17:08:29.571Z,0.65
2022-07-28T17:10:58.090Z,0.52
2022-07-28T17:13:26.578Z,0.40
2022-07-28T17:15:56.322Z,0.60
2022-07-28T17:18:28.346Z,0.40
2022-07-28T17:21:01.593Z,0.45
2022-07-28T17:23:30.009Z,0.40
2022-07-28T17:28:55.210Z,0.68
2022-07-28T17:31:23.805Z,0.60
2022-07-28T17:33:52.328Z,0.63
2022-07-28T17:36:22.141Z,0.50
2022-07-28T17:38:50.950Z,0.40
2022-07-28T17:41:19.353Z,1.00
2022-07-28T17:43:47.726Z,0.77
2022-07-28T17:46:16.527Z,0.60
2022-07-28T17:48:49.911Z,0.63
2022-07-28T17:51:19.240Z,0.38
2022-07-28T17:53:49.126Z,0.50
2022-07-28T17:56:18.843Z,0.60
2022-07-28T17:58:49.603Z,0.60
2022-07-28T18:01:18.365Z,0.57
2022-07-28T18:03:58.979Z,0.60
2022-07-28T18:06:30.701Z,0.60
2022-07-28T18:09:02.790Z,0.95
2022-07-28T18:11:37.483Z,0.65
2022-07-28T18:14:06.093Z,0.70
2022-07-28T18:16:35.068Z,0.68
2022-07-28T18:19:03.674Z,0.55
2022-07-28T18:21:32.072Z,0.65
2022-07-28T18:24:05.071Z,0.90
2022-07-28T18:26:33.593Z,1.70
2022-07-28T18:29:02.064Z,1.50
2022-07-28T18:31:30.977Z,1.60
2022-07-28T18:33:59.464Z,1.17
2022-07-28T18:36:27.850Z,1.45
2022-07-28T18:38:56.266Z,1.60
2022-07-28T18:41:26.273Z,1.75
2022-07-28T18:43:54.701Z,1.27
2022-07-28T18:46:25.334Z,0.95
2022-07-28T18:48:57.344Z,1.08
2022-07-28T18:51:25.880Z,0.90
2022-07-28T18:53:54.426Z,1.80
2022-07-28T18:56:22.792Z,1.98
2022-07-28T18:58:54.225Z,1.40
2022-07-28T19:01:22.667Z,1.42
2022-07-28T19:03:51.229Z,0.85
2022-07-28T19:06:20.604Z,1.08
2022-07-28T19:08:48.961Z,0.80
2022-07-28T19:11:19.946Z,0.68
2022-07-28T19:13:48.713Z,0.90
2022-07-28T19:16:19.375Z,0.85
2022-07-28T19:18:47.814Z,1.05
2022-07-28T19:21:16.288Z,1.10
2022-07-28T19:23:44.667Z,0.95
2022-07-28T19:26:13.141Z,1.27
2022-07-28T19:28:42.330Z,0.90
2022-07-28T19:31:11.032Z,0.73
2022-07-28T19:33:43.694Z,1.17
2022-07-28T19:36:13.469Z,0.90
2022-07-28T19:38:42.111Z,0.88
2022-07-28T19:41:11.516Z,0.90
2022-07-28T19:43:40.093Z,0.80
2022-07-28T19:46:08.702Z,0.93
2022-07-28T19:48:37.315Z,0.88
2022-07-28T19:51:07.531Z,0.80
2022-07-28T19:53:37.721Z,0.73
2022-07-28T19:56:08.881Z,1.10
2022-07-28T19:58:37.994Z,1.17
2022-07-28T20:01:06.706Z,0.80
2022-07-28T20:04:03.493Z,0.98
2022-07-28T20:06:25.568Z,0.70
2022-07-28T20:08:54.469Z,0.90
2022-07-28T20:11:22.844Z,0.87
2022-07-28T20:13:51.487Z,0.80
2022-07-28T20:16:20.406Z,0.82
2022-07-28T20:18:49.013Z,0.93
2022-07-28T20:21:19.198Z,0.98
2022-07-28T20:23:49.081Z,0.93
2022-07-28T20:26:18.581Z,1.00
2022-07-28T20:28:52.558Z,0.70
2022-07-28T20:31:21.234Z,0.75
2022-07-28T20:33:49.762Z,0.80
2022-07-28T20:36:18.220Z,0.98
2022-07-28T20:38:48.025Z,1.10
2022-07-28T20:41:16.762Z,1.17
2022-07-28T20:43:45.376Z,0.80
2022-07-28T20:46:14.465Z,1.20
2022-07-28T20:48:43.124Z,0.70
2022-07-28T20:51:11.615Z,0.90
2022-07-28T20:53:40.030Z,0.90
2022-07-28T20:56:09.880Z,1.03
2022-07-28T20:58:38.333Z,0.80
2022-07-28T21:01:06.809Z,0.88
2022-07-28T21:03:35.403Z,0.73
2022-07-28T21:06:03.807Z,0.70
2022-07-28T21:08:32.285Z,1.10
2022-07-28T21:11:00.836Z,1.10
2022-07-28T21:13:31.726Z,0.97
2022-07-28T21:16:00.108Z,0.90
2022-07-28T21:18:28.543Z,1.00
2022-07-28T21:20:57.048Z,0.73
2022-07-28T21:23:25.458Z,0.90
2022-07-28T21:25:54.026Z,1.20
2022-07-28T21:28:39.972Z,1.07
2022-07-28T21:31:12.119Z,0.77
2022-07-28T21:33:40.581Z,1.20
2022-07-28T21:36:09.336Z,1.07
2022-07-28T21:38:37.684Z,1.17
2022-07-28T21:41:06.279Z,1.40
2022-07-28T21:43:34.706Z,1.03
2022-07-28T21:46:03.319Z,1.00
2022-07-28T21:48:33.206Z,1.03
2022-07-28T21:51:01.592Z,1.00
2022-07-28T21:53:29.998Z,1.00
2022-07-28T21:55:58.395Z,1.20
2022-07-28T21:58:26.816Z,1.07
2022-07-28T22:00:59.395Z,1.00
2022-07-28T22:03:32.153Z,0.93
2022-07-28T22:06:00.525Z,1.17
2022-07-28T22:08:29.063Z,1.00
2022-07-28T22:10:57.625Z,1.23
2022-07-28T22:13:26.093Z,0.97
2022-07-28T22:15:56.848Z,1.10
2022-07-28T22:18:26.536Z,1.03
2022-07-28T22:20:56.334Z,1.10
2022-07-28T22:23:29.833Z,1.00
2022-07-28T22:25:58.621Z,0.87
2022-07-28T22:28:29.651Z,0.83
2022-07-28T22:30:58.900Z,1.10
2022-07-28T22:33:37.492Z,1.17
2022-07-28T22:36:08.451Z,0.77
2022-07-28T22:38:36.922Z,1.10
2022-07-28T22:41:05.724Z,0.83
2022-07-28T22:43:35.404Z,1.17
2022-07-28T22:46:03.934Z,0.90
2022-07-28T22:48:32.427Z,1.00
2022-07-28T22:51:00.817Z,1.20
2022-07-28T22:53:30.627Z,1.07
2022-07-28T22:55:59.169Z,1.10
2022-07-28T22:58:27.619Z,1.20
2022-07-28T23:00:56.066Z,1.00
2022-07-28T23:03:24.828Z,1.37
2022-07-28T23:05:58.058Z,1.03
2022-07-28T23:08:27.413Z,1.10
2022-07-28T23:10:57.296Z,1.20
2022-07-28T23:13:25.701Z,0.70
2022-07-28T23:15:54.135Z,1.30
2022-07-28T23:18:22.639Z,1.17
2022-07-28T23:20:51.019Z,1.13
2022-07-28T23:23:19.511Z,1.30
2022-07-28T23:25:48.711Z,1.00
2022-07-28T23:28:18.689Z,1.20
2022-07-28T23:30:48.151Z,1.00
2022-07-28T23:33:55.119Z,0.97
2022-07-28T23:36:09.668Z,1.07
2022-07-28T23:38:45.311Z,1.00
2022-07-28T23:41:13.905Z,1.10
2022-07-28T23:43:43.837Z,1.20
2022-07-28T23:46:12.246Z,0.93
2022-07-28T23:48:40.726Z,1.37
2022-07-28T23:51:09.588Z,1.57
2022-07-28T23:53:39.039Z,1.13
2022-07-28T23:56:07.765Z,1.13
2022-07-28T23:58:36.461Z,1.30
